Time;durP1;ratioP1;P1;durP2;ratioP2;P2;SDS_P1;SDS_P2;PMS_P1;PMS_P2;Temp;Humidity;BMP_temperature;BMP_pressure;BME280_temperature;BME280_humidity;BME280_pressure;Samples;Min_cycle;Max_cycle;Signal;HPM_P1;HPM_P2
2022/09/16 00:01:17;;;;;;;9.80;2.20;;;;;;;12.41;100.00;100936.44;5045680;28;20144;-74
2022/09/16 00:03:43;;;;;;;9.25;2.38;;;;;;;12.45;100.00;100936.78;5052610;28;20017;-74
2022/09/16 00:06:21;;;;;;;12.02;2.50;;;;;;;12.53;100.00;100949.16;5054302;28;20021;-74
2022/09/16 00:08:49;;;;;;;12.88;2.97;;;;;;;12.46;100.00;100932.19;5052445;28;20025;-74
2022/09/16 00:11:16;;;;;;;10.02;2.53;;;;;;;12.53;100.00;100933.72;5052213;28;20117;-74
2022/09/16 00:13:41;;;;;;;7.57;2.72;;;;;;;12.54;100.00;100948.94;5052531;28;20490;-74
2022/09/16 00:16:15;;;;;;;8.57;2.50;;;;;;;12.56;100.00;100941.41;5067791;28;20020;-74
2022/09/16 00:18:42;;;;;;;5.57;2.10;;;;;;;12.58;100.00;100936.53;5072166;28;20121;-74
2022/09/16 00:21:11;;;;;;;7.45;2.30;;;;;;;12.60;100.00;100925.44;5055173;28;20103;-74
2022/09/16 00:23:36;;;;;;;5.22;2.17;;;;;;;12.62;100.00;100930.66;5053469;28;20047;-74
2022/09/16 00:26:02;;;;;;;7.05;2.55;;;;;;;12.66;100.00;100932.66;5053763;28;20456;-74
2022/09/16 00:28:29;;;;;;;9.45;2.72;;;;;;;12.63;100.00;100929.59;5068763;28;20096;-73
2022/09/16 00:30:58;;;;;;;11.38;2.35;;;;;;;12.59;100.00;100930.06;5056314;28;20028;-73
2022/09/16 00:33:23;;;;;;;12.15;3.00;;;;;;;12.61;100.00;100929.00;5072798;28;20531;-73
2022/09/16 00:35:48;;;;;;;4.57;1.98;;;;;;;12.59;100.00;100924.63;5073211;28;20099;-73
2022/09/16 00:38:14;;;;;;;8.10;2.20;;;;;;;12.49;100.00;100929.81;5073366;28;20071;-74
2022/09/16 00:40:49;;;;;;;5.47;2.15;;;;;;;12.44;100.00;100929.72;5059246;28;20048;-73
2022/09/16 00:43:18;;;;;;;9.75;2.42;;;;;;;12.37;100.00;100924.38;5053211;28;20498;-73
2022/09/16 00:45:49;;;;;;;9.07;2.78;;;;;;;12.33;100.00;100923.19;5057090;28;20020;-74
2022/09/16 00:48:20;;;;;;;11.27;2.70;;;;;;;12.30;100.00;100917.44;5072897;28;20122;-73
2022/09/16 00:50:59;;;;;;;8.82;2.60;;;;;;;12.27;100.00;100917.91;5059070;28;20415;-74
2022/09/16 00:53:28;;;;;;;9.18;2.35;;;;;;;12.24;100.00;100913.75;5052061;28;20059;-74
2022/09/16 00:55:58;;;;;;;5.82;2.40;;;;;;;12.18;100.00;100909.28;5053040;28;20020;-74
2022/09/16 00:58:50;;;;;;;9.05;3.08;;;;;;;12.18;100.00;100910.13;5052818;28;20426;-74
2022/09/16 01:01:16;;;;;;;6.55;2.72;;;;;;;12.19;100.00;100914.47;5055042;28;20098;-73
2022/09/16 01:03:47;;;;;;;11.63;2.80;;;;;;;12.14;100.00;100908.06;5052769;28;20024;-73
2022/09/16 01:06:14;;;;;;;;;;;;;;;12.32;100.00;100916.13;5053647;28;20017;-73
2022/09/16 01:08:41;;;;;;;10.35;2.78;;;;;;;12.14;100.00;100908.91;5052500;28;19909;-73
2022/09/16 01:11:06;;;;;;;8.85;2.42;;;;;;;12.14;100.00;100902.66;5051916;28;20025;-74
2022/09/16 01:13:32;;;;;;;5.78;2.50;;;;;;;12.07;100.00;100901.97;5052787;28;20028;-74
2022/09/16 01:16:05;;;;;;;8.88;2.95;;;;;;;12.00;100.00;100907.47;5051537;28;20056;-75
2022/09/16 01:19:07;;;;;;;6.32;2.63;;;;;;;12.04;100.00;100908.66;5052653;28;20053;-74
2022/09/16 01:21:32;;;;;;;;;;;;;;;12.15;100.00;100913.28;5051175;28;20464;-74
2022/09/16 01:24:16;;;;;;;7.45;2.50;;;;;;;12.02;100.00;100913.50;5051349;28;20003;-74
2022/09/16 01:27:04;;;;;;;8.70;2.83;;;;;;;12.02;100.00;100910.78;5067659;28;20032;-74
2022/09/16 01:29:51;;;;;;;5.75;2.42;;;;;;;11.92;100.00;100905.91;5050696;28;20020;-74
2022/09/16 01:32:41;;;;;;;9.90;2.45;;;;;;;11.93;100.00;100909.47;5052084;28;20028;-74
2022/09/16 01:35:17;;;;;;;7.57;2.50;;;;;;;11.85;100.00;100900.59;5052456;28;20020;-73
2022/09/16 01:38:17;;;;;;;9.45;2.72;;;;;;;11.89;100.00;100900.94;5052286;28;20090;-73
2022/09/16 01:41:03;;;;;;;6.38;2.25;;;;;;;11.85;100.00;100911.44;5035553;28;20033;-73
2022/09/16 01:43:39;;;;;;;7.15;2.80;;;;;;;11.83;100.00;100901.88;5052380;28;20098;-74
2022/09/16 01:46:33;;;;;;;8.25;2.58;;;;;;;11.86;100.00;100906.81;5052625;28;20455;-74
2022/09/16 01:49:16;;;;;;;10.43;2.40;;;;;;;11.79;100.00;100897.97;5050561;28;20460;-74
2022/09/16 01:52:12;;;;;;;9.45;2.75;;;;;;;11.77;100.00;100898.19;5051430;28;20036;-74
2022/09/16 01:55:19;;;;;;;7.85;2.55;;;;;;;11.70;100.00;100892.06;5051073;28;20063;-74
2022/09/16 01:57:55;;;;;;;10.32;2.60;;;;;;;11.64;100.00;100903.81;5067397;28;20027;-73
2022/09/16 02:00:21;;;;;;;8.93;2.92;;;;;;;11.60;100.00;100905.34;5046068;28;20009;-75
2022/09/16 02:03:08;;;;;;;9.30;2.70;;;;;;;11.61;100.00;100906.97;5047512;28;20552;-73
2022/09/16 02:05:38;;;;;;;7.47;2.95;;;;;;;11.50;100.00;100909.44;5052463;28;20536;-73
2022/09/16 02:08:13;;;;;;;6.60;2.30;;;;;;;11.43;100.00;100919.53;5051921;28;20016;-74
2022/09/16 02:11:01;;;;;;;9.98;2.40;;;;;;;11.44;100.00;100914.94;5049816;28;20119;-73
2022/09/16 02:13:35;;;;;;;8.32;2.60;;;;;;;11.39;100.00;100912.91;5052255;28;20021;-74
2022/09/16 02:16:06;;;;;;;10.77;2.72;;;;;;;11.34;100.00;100913.59;5051707;28;20032;-73
2022/09/16 02:18:35;;;;;;;8.63;2.30;;;;;;;11.38;100.00;100915.84;5051969;28;20574;-74
2022/09/16 02:21:04;;;;;;;9.50;2.92;;;;;;;11.38;100.00;100915.84;5065645;28;20572;-74
2022/09/16 02:23:36;;;;;;;9.00;2.60;;;;;;;11.31;100.00;100905.94;5050609;28;20456;-74
2022/09/16 02:26:05;;;;;;;7.28;2.30;;;;;;;11.34;100.00;100910.06;5051742;28;20456;-74
2022/09/16 02:28:38;;;;;;;11.15;2.80;;;;;;;11.39;100.00;100915.63;5052037;28;20048;-73
2022/09/16 02:31:07;;;;;;;7.15;2.47;;;;;;;11.36;100.00;100916.09;5050950;28;20036;-74
2022/09/16 02:33:39;;;;;;;12.00;2.83;;;;;;;11.40;100.00;100913.72;5051792;28;20024;-74
2022/09/16 02:36:07;;;;;;;8.10;2.90;;;;;;;11.40;100.00;100920.00;5051678;28;20036;-73
2022/09/16 02:38:39;;;;;;;10.43;3.10;;;;;;;11.41;100.00;100910.78;5067193;28;20368;-75
2022/09/16 02:41:05;;;;;;;5.82;2.13;;;;;;;11.42;100.00;100908.94;5050625;28;20029;-73
2022/09/16 02:43:31;;;;;;;6.30;2.22;;;;;;;11.45;100.00;100901.16;5050715;28;20071;-73
2022/09/16 02:46:16;;;;;;;12.50;3.20;;;;;;;11.52;100.00;100906.50;5051503;28;20022;-73
2022/09/16 02:49:09;;;;;;;6.32;2.60;;;;;;;11.55;100.00;100905.19;5051233;28;20495;-74
2022/09/16 02:51:41;;;;;;;5.68;2.38;;;;;;;11.57;100.00;100913.94;5049882;28;20310;-74
2022/09/16 02:54:21;;;;;;;8.75;2.50;;;;;;;11.59;100.00;100909.91;5050229;28;20017;-73
2022/09/16 02:56:47;;;;;;;7.32;2.15;;;;;;;11.57;100.00;100919.34;5053607;28;20115;-74
2022/09/16 02:59:16;;;;;;;10.60;2.92;;;;;;;11.54;100.00;100915.22;5055250;28;20095;-73
2022/09/16 03:01:44;;;;;;;9.18;2.88;;;;;;;11.56;100.00;100906.84;5050433;28;20037;-74
2022/09/16 03:04:13;;;;;;;6.80;2.70;;;;;;;11.58;100.00;100910.16;5055434;28;20025;-74
2022/09/16 03:06:38;;;;;;;7.53;2.90;;;;;;;11.60;100.00;100913.47;5055116;28;20483;-74
2022/09/16 03:09:08;;;;;;;8.98;2.33;;;;;;;11.58;100.00;100915.56;5054819;28;20056;-73
2022/09/16 03:11:59;;;;;;;7.00;2.35;;;;;;;11.58;100.00;100908.28;5054270;28;20024;-73
2022/09/16 03:14:45;;;;;;;12.40;2.73;;;;;;;11.60;100.00;100908.06;5053164;28;20024;-73
2022/09/16 03:17:41;;;;;;;9.50;2.50;;;;;;;11.63;100.00;100896.75;5053816;28;20410;-74
2022/09/16 03:20:35;;;;;;;6.38;2.63;;;;;;;11.64;100.00;100895.69;5053163;28;20021;-74
2022/09/16 03:23:37;;;;;;;8.77;2.20;;;;;;;11.63;100.00;100904.88;5033633;28;20021;-75
2022/09/16 03:26:10;;;;;;;7.90;2.40;;;;;;;11.55;100.00;100902.47;5034583;28;20053;-73
2022/09/16 03:29:01;;;;;;;8.48;2.40;;;;;;;11.60;100.00;100906.16;5033642;28;20075;-73
2022/09/16 03:31:42;;;;;;;8.63;2.42;;;;;;;11.65;100.00;100905.47;5048684;28;20040;-74
2022/09/16 03:34:16;;;;;;;;;;;;;;;11.78;100.00;100902.56;5054861;28;20099;-74
2022/09/16 03:36:51;;;;;;;8.35;2.60;;;;;;;11.69;100.00;100898.53;5054502;28;20262;-73
2022/09/16 03:39:17;;;;;;;6.53;2.00;;;;;;;11.68;100.00;100894.16;5069849;28;20017;-74
2022/09/16 03:41:43;;;;;;;6.95;2.10;;;;;;;11.67;100.00;100904.19;5052276;28;20027;-74
2022/09/16 03:44:09;;;;;;;5.45;2.10;;;;;;;11.68;100.00;100896.88;5053243;28;20372;-74
2022/09/16 03:46:34;;;;;;;8.38;2.30;;;;;;;11.67;100.00;100895.22;5054357;28;20025;-73
2022/09/16 03:49:00;;;;;;;10.20;2.17;;;;;;;11.66;100.00;100899.81;5052708;28;20091;-74
2022/09/16 03:51:25;;;;;;;5.22;2.10;;;;;;;11.64;100.00;100896.53;5053371;28;20020;-74
2022/09/16 03:53:52;;;;;;;6.50;2.10;;;;;;;11.64;100.00;100903.81;5053995;28;20341;-74
2022/09/16 03:56:17;;;;;;;9.15;2.85;;;;;;;11.59;100.00;100893.66;5054136;28;20025;-74
2022/09/16 03:58:49;;;;;;;8.15;2.30;;;;;;;11.56;100.00;100890.59;5053083;28;20448;-73
2022/09/16 04:01:14;;;;;;;;;;;;;;;11.71;100.00;100896.41;5049729;28;20079;-73
2022/09/16 04:03:40;;;;;;;8.68;2.50;;;;;;;11.59;100.00;100892.84;5053738;28;19912;-73
2022/09/16 04:06:05;;;;;;;9.35;2.35;;;;;;;11.56;100.00;100896.84;5052437;28;20410;-73
2022/09/16 04:08:31;;;;;;;9.65;2.03;;;;;;;11.52;100.00;100896.47;5053884;28;20017;-74
2022/09/16 04:10:59;;;;;;;8.32;2.30;;;;;;;11.49;100.00;100891.53;5052725;28;20057;-74
2022/09/16 04:13:25;;;;;;;8.25;2.30;;;;;;;11.49;100.00;100896.13;5052834;28;20025;-74
2022/09/16 04:15:53;;;;;;;7.28;2.25;;;;;;;11.49;100.00;100883.38;5069044;28;20190;-74
2022/09/16 04:18:19;;;;;;;6.20;2.15;;;;;;;11.53;100.00;100903.56;5069134;28;20017;-73
2022/09/16 04:20:44;;;;;;;11.70;2.33;;;;;;;11.59;100.00;100906.41;5052597;28;20040;-73
2022/09/16 04:23:10;;;;;;;12.63;3.25;;;;;;;11.53;100.00;100898.13;5053810;28;20495;-74
2022/09/16 04:25:35;;;;;;;9.10;2.38;;;;;;;11.55;100.00;100899.78;5052495;28;20016;-73
2022/09/16 04:28:01;;;;;;;6.07;2.10;;;;;;;11.53;100.00;100897.28;5053220;28;20395;-74
2022/09/16 04:30:26;;;;;;;10.18;2.22;;;;;;;11.56;100.00;100909.56;5052589;28;20479;-74
2022/09/16 04:32:53;;;;;;;7.28;2.17;;;;;;;11.56;100.00;100904.97;5053216;28;20074;-75
2022/09/16 04:35:18;;;;;;;7.70;2.10;;;;;;;11.58;100.00;100912.84;5053463;28;20024;-74
2022/09/16 04:37:44;;;;;;;6.70;1.90;;;;;;;11.57;100.00;100912.03;5052319;28;20129;-74
2022/09/16 04:40:11;;;;;;;5.13;1.92;;;;;;;11.52;100.00;100918.16;5052149;28;20099;-74
2022/09/16 04:42:37;;;;;;;9.63;2.10;;;;;;;11.56;100.00;100912.28;5053509;28;20021;-73
2022/09/16 04:45:02;;;;;;;7.88;2.08;;;;;;;11.55;100.00;100910.59;5051925;28;20075;-74
2022/09/16 04:47:28;;;;;;;7.30;1.55;;;;;;;11.43;100.00;100908.69;5051796;28;20024;-74
2022/09/16 04:49:53;;;;;;;5.53;1.63;;;;;;;11.40;100.00;100903.75;5050514;28;20106;-74
2022/09/16 04:52:19;;;;;;;3.90;1.60;;;;;;;11.39;100.00;100893.13;5053462;28;20039;-74
2022/09/16 04:54:44;;;;;;;4.82;1.60;;;;;;;11.39;100.00;100891.22;5065908;28;20029;-74
2022/09/16 04:57:09;;;;;;;7.03;1.90;;;;;;;11.43;100.00;100878.88;5053440;28;20068;-74
2022/09/16 04:59:35;;;;;;;8.30;1.60;;;;;;;11.47;100.00;100895.50;5051677;28;20021;-74
2022/09/16 05:02:03;;;;;;;6.55;1.60;;;;;;;11.47;100.00;100893.63;5038929;28;20090;-75
2022/09/16 05:04:28;;;;;;;4.65;1.85;;;;;;;11.50;100.00;100898.59;5051906;28;20036;-75
2022/09/16 05:06:54;;;;;;;5.15;1.98;;;;;;;11.45;100.00;100889.50;5051703;28;20548;-75
2022/09/16 05:09:21;;;;;;;5.53;1.30;;;;;;;11.48;100.00;100900.69;5052870;28;20024;-75
2022/09/16 05:11:47;;;;;;;8.40;1.60;;;;;;;11.47;100.00;100901.78;5051867;28;20021;-74
2022/09/16 05:14:17;;;;;;;7.95;1.77;;;;;;;11.44;100.00;100904.91;5051853;28;20448;-74
2022/09/16 05:16:43;;;;;;;7.68;2.05;;;;;;;11.44;100.00;100906.81;5050639;28;20024;-74
2022/09/16 05:19:13;;;;;;;6.32;1.48;;;;;;;11.43;100.00;100905.13;5050732;28;20024;-74
2022/09/16 05:21:39;;;;;;;8.75;1.77;;;;;;;11.41;100.00;100899.13;5051411;28;20021;-74
2022/09/16 05:24:07;;;;;;;6.55;1.65;;;;;;;11.40;100.00;100913.72;5051361;28;20029;-75
2022/09/16 05:26:41;;;;;;;6.45;1.30;;;;;;;11.41;100.00;100918.09;5052659;28;20021;-73
2022/09/16 05:29:11;;;;;;;5.30;1.40;;;;;;;11.43;100.00;100913.28;5051623;28;20539;-75
2022/09/16 05:31:38;;;;;;;7.78;1.70;;;;;;;11.45;100.00;100913.88;5052490;28;20039;-74
2022/09/16 05:34:10;;;;;;;4.53;1.63;;;;;;;11.41;100.00;100913.50;5052176;28;20024;-73
2022/09/16 05:36:38;;;;;;;4.75;1.80;;;;;;;11.42;100.00;100917.06;5052362;28;20036;-73
2022/09/16 05:39:05;;;;;;;10.13;1.88;;;;;;;11.43;100.00;100918.69;5051494;28;20380;-77
2022/09/16 05:41:31;;;;;;;6.22;1.80;;;;;;;11.47;100.00;100920.75;5052588;28;20029;-76
2022/09/16 05:44:00;;;;;;;6.65;1.63;;;;;;;11.47;100.00;100919.88;5050739;28;20044;-76
2022/09/16 05:46:26;;;;;;;6.53;1.50;;;;;;;11.50;100.00;100914.00;5049631;28;20031;-76
2022/09/16 05:48:54;;;;;;;5.65;1.58;;;;;;;11.50;100.00;100914.84;5050268;28;20052;-74
2022/09/16 05:51:21;;;;;;;6.85;1.60;;;;;;;11.50;100.00;100916.72;5048291;28;20032;-75
2022/09/16 05:53:48;;;;;;;5.28;1.40;;;;;;;11.51;100.00;100911.06;5051126;28;20048;-75
2022/09/16 05:56:16;;;;;;;6.43;1.50;;;;;;;11.51;100.00;100916.50;5051363;28;20029;-75
2022/09/16 05:58:41;;;;;;;4.97;1.65;;;;;;;11.50;100.00;100914.84;5065912;28;20032;-76
2022/09/16 06:01:12;;;;;;;5.60;1.42;;;;;;;11.56;100.00;100918.50;5046648;28;20106;-75
2022/09/16 06:03:39;;;;;;;8.57;1.63;;;;;;;11.49;100.00;100907.78;5051835;28;20033;-75
2022/09/16 06:06:12;;;;;;;6.18;1.90;;;;;;;11.52;100.00;100910.03;5031405;28;20045;-75
2022/09/16 06:08:38;;;;;;;4.88;1.48;;;;;;;11.53;100.00;100914.41;5040242;28;20025;-76
2022/09/16 06:11:05;;;;;;;6.90;1.40;;;;;;;11.51;100.00;100916.50;5050128;28;20020;-75
2022/09/16 06:13:34;;;;;;;3.45;1.20;;;;;;;11.59;100.00;100922.66;5051967;28;20364;-76
2022/09/16 06:16:08;;;;;;;4.65;1.30;;;;;;;11.58;100.00;100918.28;5051739;28;20051;-76
2022/09/16 06:18:34;;;;;;;4.75;1.42;;;;;;;11.60;100.00;100930.56;5051488;28;20021;-78
2022/09/16 06:21:04;;;;;;;7.80;1.40;;;;;;;11.58;100.00;100926.41;5050618;28;20021;-75
2022/09/16 09:04:54;;;;;;;6.95;1.40;;;;;;;13.27;100.00;100992.94;5113336;27;20417;-73
2022/09/16 09:08:01;;;;;;;8.60;1.83;;;;;;;13.25;100.00;100992.31;5089647;28;20024;-77
2022/09/16 09:10:30;;;;;;;7.85;1.38;;;;;;;13.33;100.00;100990.31;5089092;28;20040;-74
2022/09/16 09:13:29;;;;;;;5.43;1.60;;;;;;;13.46;100.00;100988.16;5084588;28;20077;-78
2022/09/16 09:16:03;;;;;;;4.10;1.40;;;;;;;13.78;100.00;100987.72;5069645;28;20024;-74
2022/09/16 09:18:58;;;;;;;9.57;1.65;;;;;;;13.80;100.00;100990.22;5068322;28;20032;-70
2022/09/16 09:21:44;;;;;;;8.90;1.50;;;;;;;13.72;100.00;100998.72;5075091;28;20311;-69
2022/09/16 09:24:16;;;;;;;7.55;1.40;;;;;;;13.65;100.00;100999.72;5084396;28;20024;-74
2022/09/16 09:26:46;;;;;;;9.02;1.30;;;;;;;13.66;100.00;100992.38;5089717;28;20028;-71
2022/09/16 09:29:48;;;;;;;6.68;1.60;;;;;;;13.74;100.00;100996.59;5087890;28;20434;-71
2022/09/16 09:32:23;;;;;;;10.13;1.85;;;;;;;13.79;100.00;100985.81;5087724;28;20356;-71
2022/09/16 09:35:07;;;;;;;7.72;1.70;;;;;;;13.85;100.00;100987.56;5068727;28;20071;-70
2022/09/16 09:38:02;;;;;;;4.10;1.50;;;;;;;13.97;100.00;100996.50;5064664;28;20371;-73
2022/09/16 09:40:52;;;;;;;5.07;1.50;;;;;;;14.13;100.00;100988.59;5048996;28;20013;-71
2022/09/16 09:43:26;;;;;;;9.77;1.50;;;;;;;14.26;100.00;100982.03;5055093;28;20044;-71
2022/09/16 09:46:10;;;;;;;7.53;1.52;;;;;;;14.24;100.00;100985.00;5055364;28;20029;-73
2022/09/16 09:49:08;;;;;;;3.40;1.10;;;;;;;14.14;100.00;100982.91;5066836;28;20052;-69
2022/09/16 09:51:43;;;;;;;5.32;1.50;;;;;;;14.17;100.00;100979.69;5074597;28;20029;-70
2022/09/16 09:54:29;;;;;;;5.32;1.63;;;;;;;14.15;100.00;100968.25;5060508;28;20031;-69
2022/09/16 09:56:57;;;;;;;5.88;1.15;;;;;;;14.17;94.09;100973.44;5067312;28;20028;-71
2022/09/16 09:59:36;;;;;;;4.95;1.10;;;;;;;14.16;95.84;100983.50;5066866;28;20029;-70
2022/09/16 10:02:02;;;;;;;3.97;1.40;;;;;;;14.25;97.62;101000.28;5028340;28;20481;-72
2022/09/16 10:04:36;;;;;;;3.90;0.98;;;;;;;14.10;80.95;101006.25;5008715;28;20105;-72
2022/09/16 10:07:03;;;;;;;6.28;1.30;;;;;;;13.77;84.17;101017.91;5005455;28;20076;-71
2022/09/16 10:09:28;;;;;;;3.78;1.00;;;;;;;13.47;91.70;101025.19;5007253;28;20101;-72
2022/09/16 10:11:55;;;;;;;7.07;1.75;;;;;;;13.19;100.00;101030.50;5008364;28;20052;-74
2022/09/16 10:14:38;;;;;;;6.30;1.08;;;;;;;12.92;100.00;101040.00;5003260;28;20405;-74
2022/09/16 10:17:13;;;;;;;4.78;0.70;;;;;;;12.23;100.00;101037.75;4991335;28;20442;-74
2022/09/16 10:20:23;;;;;;;4.75;0.75;;;;;;;11.90;100.00;101019.19;4991797;28;20018;-74
2022/09/16 10:22:58;;;;;;;3.38;0.85;;;;;;;11.73;100.00;101012.75;4955454;28;20035;-77
2022/09/16 10:25:25;;;;;;;1.05;0.50;;;;;;;11.70;100.00;101005.91;4974364;28;20035;-76
2022/09/16 10:28:00;;;;;;;3.63;0.70;;;;;;;11.67;100.00;101009.06;4979097;28;20030;-71
2022/09/16 10:30:27;;;;;;;2.05;0.70;;;;;;;11.60;100.00;100992.91;4994054;28;20472;-73
2022/09/16 10:33:02;;;;;;;2.95;0.50;;;;;;;11.68;100.00;100995.31;4994258;28;20026;-74
2022/09/16 10:35:29;;;;;;;4.22;0.90;;;;;;;11.73;100.00;101008.19;4994073;28;20033;-71
2022/09/16 10:38:12;;;;;;;2.67;0.73;;;;;;;11.76;100.00;101005.00;4994498;28;20029;-73
2022/09/16 10:40:49;;;;;;;4.63;0.70;;;;;;;11.79;100.00;101007.25;4994593;28;20025;-76
2022/09/16 10:43:15;;;;;;;2.75;0.80;;;;;;;11.88;100.00;101008.59;4992100;28;20049;-73
2022/09/16 10:45:49;;;;;;;5.50;0.93;;;;;;;11.94;100.00;101006.03;4998054;28;20457;-72
2022/09/16 10:48:18;;;;;;;4.10;0.80;;;;;;;11.94;100.00;101014.16;4992422;28;20022;-73
2022/09/16 10:50:56;;;;;;;3.95;1.13;;;;;;;12.07;100.00;101011.28;4982602;28;20038;-73
2022/09/16 10:53:28;;;;;;;3.75;1.15;;;;;;;12.18;100.00;101013.22;4985922;28;20031;-74
2022/09/16 10:55:58;;;;;;;3.40;1.00;;;;;;;12.23;100.00;101010.63;4993345;28;20030;-73
2022/09/16 10:58:24;;;;;;;6.35;1.17;;;;;;;12.30;100.00;101004.25;4993582;28;20058;-76
2022/09/16 11:01:12;;;;;;;4.00;1.10;;;;;;;12.33;100.00;101001.06;4975372;28;20106;-76
2022/09/16 11:04:22;;;;;;;7.28;1.30;;;;;;;12.41;100.00;100998.84;5003124;28;20050;-75
2022/09/16 11:07:14;;;;;;;4.65;1.25;;;;;;;12.47;100.00;101005.25;5014697;28;20112;-75
2022/09/16 11:09:40;;;;;;;7.60;1.23;;;;;;;12.53;100.00;101006.16;5013862;28;20120;-75
2022/09/16 11:12:24;;;;;;;5.97;1.67;;;;;;;12.53;100.00;101001.59;5011798;28;20431;-79
2022/09/16 11:15:14;;;;;;;5.85;1.20;;;;;;;12.63;100.00;101011.03;5014219;28;20033;-77
2022/09/16 11:17:42;;;;;;;11.38;1.70;;;;;;;12.59;100.00;101008.78;5013679;28;21946;-77
2022/09/16 11:20:38;;;;;;;6.88;1.55;;;;;;;12.63;100.00;101005.59;5012688;28;20030;-77
2022/09/16 11:23:42;;;;;;;6.18;1.58;;;;;;;12.66;100.00;101008.66;5028918;28;20037;-78
2022/09/16 11:26:38;;;;;;;7.22;1.60;;;;;;;12.70;100.00;101004.44;5007967;28;20435;-76
2022/09/16 11:29:19;;;;;;;5.43;1.48;;;;;;;12.70;100.00;100998.19;5014152;28;20041;-78
2022/09/16 11:32:27;;;;;;;7.78;1.55;;;;;;;12.76;100.00;100997.25;5013153;28;20524;-77
2022/09/16 11:35:16;;;;;;;4.22;1.60;;;;;;;12.85;100.00;100995.81;5006840;28;20038;-77
2022/09/16 11:38:02;;;;;;;9.40;2.13;;;;;;;12.93;100.00;101002.78;5014100;28;20017;-77
2022/09/16 11:40:50;;;;;;;4.88;1.60;;;;;;;13.00;100.00;101008.91;5011679;28;20032;-78
2022/09/16 11:43:34;;;;;;;8.23;2.00;;;;;;;13.10;100.00;101016.47;5028777;28;20500;-77
2022/09/16 11:46:12;;;;;;;5.25;1.67;;;;;;;13.22;100.00;101016.44;5028979;28;20032;-77
2022/09/16 11:48:54;;;;;;;4.03;1.27;;;;;;;13.30;100.00;101016.09;5024328;28;20412;-77
2022/09/16 11:51:57;;;;;;;5.47;1.30;;;;;;;13.40;100.00;101023.66;5013743;28;20080;-77
2022/09/16 11:54:28;;;;;;;6.15;1.70;;;;;;;13.44;100.00;101014.78;5013643;28;20032;-77
2022/09/16 11:57:02;;;;;;;7.50;1.52;;;;;;;13.45;100.00;101015.59;5029160;28;20125;-76
2022/09/16 11:59:38;;;;;;;3.38;1.33;;;;;;;13.52;100.00;101015.47;5012525;28;20457;-76
2022/09/16 12:02:18;;;;;;;5.50;1.33;;;;;;;13.55;100.00;101017.72;5000151;28;20058;-76
2022/09/16 12:04:56;;;;;;;6.70;1.13;;;;;;;13.51;100.00;101019.25;4992709;28;20043;-76
2022/09/16 12:07:46;;;;;;;4.07;0.90;;;;;;;13.49;100.00;101016.78;4990279;28;20455;-77
2022/09/16 12:10:22;;;;;;;6.05;1.40;;;;;;;13.47;100.00;101029.78;4993752;28;20030;-74
2022/09/16 12:12:53;;;;;;;4.60;1.25;;;;;;;13.44;100.00;101025.66;4994239;28;20109;-77
2022/09/16 12:15:25;;;;;;;5.72;1.10;;;;;;;13.41;100.00;101026.13;4992542;28;20026;-77
2022/09/16 12:18:02;;;;;;;1.17;0.60;;;;;;;13.37;100.00;101029.56;4991908;28;20031;-76
2022/09/16 12:20:34;;;;;;;3.67;0.35;;;;;;;13.30;100.00;101025.06;4991634;28;20049;-77
2022/09/16 12:23:08;;;;;;;1.45;0.45;;;;;;;13.26;100.00;101026.59;4993452;28;20027;-76
2022/09/16 12:25:41;;;;;;;2.88;1.05;;;;;;;13.25;100.00;101022.22;4993619;28;20038;-76
2022/09/16 12:28:24;;;;;;;0.63;0.60;;;;;;;13.20;100.00;101018.59;4992531;28;20370;-76
2022/09/16 12:31:02;;;;;;;0.82;0.50;;;;;;;13.15;100.00;101015.75;4993464;28;20030;-75
2022/09/16 12:33:35;;;;;;;3.40;0.60;;;;;;;13.09;100.00;101029.22;5004789;28;20031;-76
2022/09/16 12:36:07;;;;;;;1.52;0.70;;;;;;;13.07;100.00;101030.50;4974344;28;20042;-76
2022/09/16 12:38:33;;;;;;;3.50;0.70;;;;;;;13.04;100.00;101031.00;5006983;28;20050;-76
2022/09/16 12:41:11;;;;;;;3.13;0.68;;;;;;;13.04;100.00;101031.00;4993636;28;20369;-77
2022/09/16 12:44:01;;;;;;;1.80;0.50;;;;;;;12.98;100.00;101034.66;4992067;28;20377;-77
2022/09/16 12:46:58;;;;;;;2.50;0.82;;;;;;;13.01;100.00;101056.72;4990432;28;20374;-76
2022/09/16 12:49:52;;;;;;;2.03;0.80;;;;;;;12.91;100.00;101060.06;4991016;28;20036;-76
2022/09/16 12:52:28;;;;;;;4.18;1.25;;;;;;;12.78;100.00;101054.84;4993197;28;20026;-77
2022/09/16 12:55:23;;;;;;;3.20;1.00;;;;;;;12.71;100.00;101051.41;4993397;28;20531;-79
2022/09/16 12:58:07;;;;;;;2.38;0.73;;;;;;;12.63;100.00;101041.72;4993608;28;20556;-79
2022/09/16 13:01:08;;;;;;;2.40;0.90;;;;;;;12.63;100.00;101040.91;4988882;28;20061;-78
2022/09/16 13:03:38;;;;;;;1.92;1.10;;;;;;;12.52;100.00;101056.94;4991716;28;20053;-79
2022/09/16 13:06:15;;;;;;;2.95;1.02;;;;;;;12.43;100.00;101061.03;5005752;28;20036;-78
2022/09/16 13:08:41;;;;;;;3.47;1.13;;;;;;;12.42;100.00;101064.81;4994819;28;20026;-78
2022/09/16 13:11:18;;;;;;;4.60;1.10;;;;;;;12.38;100.00;101058.22;5011647;28;20036;-77
2022/09/16 13:13:48;;;;;;;3.67;0.85;;;;;;;12.32;100.00;101054.53;5028029;28;20080;-82
2022/09/16 13:16:33;;;;;;;6.32;2.80;;;;;;;12.28;100.00;101060.66;5013026;28;20032;-77
2022/09/16 13:19:27;;;;;;;3.85;1.70;;;;;;;12.26;100.00;101069.03;5011189;28;20045;-80
2022/09/16 13:22:16;;;;;;;4.10;1.48;;;;;;;12.21;100.00;101061.56;5011695;28;20029;-80
2022/09/16 13:24:47;;;;;;;2.75;0.77;;;;;;;11.97;100.00;101060.66;5021710;28;20038;-80
2022/09/16 13:27:31;;;;;;;4.05;1.25;;;;;;;11.96;100.00;101055.47;5024934;28;20121;-80
2022/09/16 13:30:11;;;;;;;7.22;1.40;;;;;;;11.91;100.00;101068.84;5004363;28;20033;-78
2022/09/16 13:32:52;;;;;;;5.22;1.00;;;;;;;11.80;100.00;101071.25;5012553;28;20034;-77
2022/09/16 13:35:17;;;;;;;4.30;0.93;;;;;;;11.70;100.00;101065.56;5012356;28;20032;-78
2022/09/16 13:37:55;;;;;;;9.82;2.03;;;;;;;11.65;100.00;101059.97;5027201;28;20452;-81
2022/09/16 13:40:23;;;;;;;4.53;1.08;;;;;;;11.62;100.00;101060.44;5026899;28;20417;-79
2022/09/16 13:43:03;;;;;;;2.97;1.17;;;;;;;11.57;100.00;101065.72;5010054;28;20445;-79
2022/09/16 13:45:40;;;;;;;6.93;1.35;;;;;;;11.57;100.00;101063.81;5010954;28;20018;-77
2022/09/16 13:48:11;;;;;;;2.65;1.05;;;;;;;11.70;100.00;101062.84;5012234;28;20033;-79
2022/09/16 13:50:42;;;;;;;9.10;1.55;;;;;;;11.73;100.00;101059.69;5011798;28;20073;-78
2022/09/16 13:53:29;;;;;;;7.57;1.48;;;;;;;11.79;100.00;101058.78;5014667;28;20092;-78
2022/09/16 13:56:04;;;;;;;7.93;1.40;;;;;;;11.81;100.00;101055.84;5014246;28;20527;-78
2022/09/16 13:58:48;;;;;;;10.50;1.55;;;;;;;11.86;100.00;101045.94;5013539;28;20044;-78
2022/09/16 14:01:23;;;;;;;6.15;1.55;;;;;;;11.93;100.00;101043.19;5022002;28;20462;-79
2022/09/16 14:03:52;;;;;;;7.72;1.90;;;;;;;11.97;100.00;101040.81;5014340;28;20474;-78
2022/09/16 14:06:36;;;;;;;7.78;1.83;;;;;;;12.02;100.00;101030.13;5012514;28;20408;-77
2022/09/16 14:09:32;;;;;;;4.90;1.30;;;;;;;12.16;100.00;101031.59;5030854;28;20037;-77
2022/09/16 14:12:22;;;;;;;8.00;1.58;;;;;;;12.23;100.00;101021.47;5028481;28;20117;-79
2022/09/16 14:14:49;;;;;;;5.43;1.42;;;;;;;12.35;100.00;101028.78;5014244;28;20033;-77
2022/09/16 14:17:22;;;;;;;7.55;1.65;;;;;;;12.43;100.00;101028.47;4999002;28;20036;-76
2022/09/16 14:19:50;;;;;;;6.78;1.95;;;;;;;12.38;100.00;101022.94;4994752;28;20026;-75
2022/09/16 14:22:20;;;;;;;4.70;1.30;;;;;;;12.38;100.00;101022.94;4995038;28;20532;-78
2022/09/16 14:24:46;;;;;;;8.10;1.52;;;;;;;12.36;100.00;101022.31;5025478;28;20033;-78
2022/09/16 14:27:28;;;;;;;4.28;1.30;;;;;;;12.33;100.00;101017.34;5030536;28;20034;-79
2022/09/16 14:29:57;;;;;;;4.93;1.23;;;;;;;12.35;100.00;101029.63;5013095;28;20416;-79
2022/09/16 14:32:25;;;;;;;5.75;1.40;;;;;;;12.34;100.00;101019.03;5013085;28;20045;-78
2022/09/16 14:34:55;;;;;;;4.80;1.27;;;;;;;12.33;100.00;101014.63;5014017;28;20444;-78